createdAt,value
2018-12-24T00:01:31.619Z,11.10
2018-12-24T00:04:00.149Z,11.10
2018-12-24T00:06:28.690Z,11.10
2018-12-24T00:08:57.241Z,11.10
2018-12-24T00:11:25.836Z,11.10
2018-12-24T00:13:54.421Z,11.10
2018-12-24T00:16:23.015Z,11.20
2018-12-24T00:18:51.910Z,11.20
2018-12-24T00:21:20.465Z,11.30
2018-12-24T00:23:49.003Z,11.30
2018-12-24T00:26:17.554Z,11.30
2018-12-24T00:28:46.117Z,11.20
2018-12-24T00:31:14.666Z,11.20
2018-12-24T00:33:43.189Z,11.10
2018-12-24T00:36:11.713Z,11.10
2018-12-24T00:38:40.249Z,11.10
2018-12-24T00:41:08.756Z,11.10
2018-12-24T00:43:37.320Z,11.00
2018-12-24T00:46:05.832Z,11.00
2018-12-24T00:48:34.370Z,11.00
2018-12-24T00:51:02.997Z,11.00
2018-12-24T00:53:31.507Z,11.00
2018-12-24T00:56:00.369Z,11.00
2018-12-24T00:58:28.888Z,11.00
2018-12-24T01:00:57.465Z,11.00
2018-12-24T01:03:26.020Z,11.10
2018-12-24T01:05:54.801Z,11.10
2018-12-24T01:08:23.345Z,11.10
2018-12-24T01:10:51.869Z,11.10
2018-12-24T01:13:20.497Z,11.10
2018-12-24T01:15:48.997Z,11.10
2018-12-24T01:18:17.527Z,11.10
2018-12-24T01:20:46.086Z,11.10
2018-12-24T01:23:14.601Z,11.10
2018-12-24T01:25:43.115Z,11.10
2018-12-24T01:28:11.662Z,11.10
2018-12-24T01:30:40.180Z,11.10
2018-12-24T01:33:08.692Z,11.10
2018-12-24T01:35:37.210Z,11.10
2018-12-24T01:38:05.727Z,11.10
2018-12-24T01:40:34.284Z,11.10
2018-12-24T01:43:02.794Z,11.10
2018-12-24T01:45:31.346Z,11.10
2018-12-24T01:47:59.854Z,11.10
2018-12-24T01:50:28.426Z,11.20
2018-12-24T01:52:56.993Z,11.10
2018-12-24T01:55:25.527Z,11.20
2018-12-24T01:57:54.073Z,11.10
2018-12-24T02:00:22.585Z,11.10
2018-12-24T02:02:51.106Z,11.10
2018-12-24T02:05:19.631Z,11.10
2018-12-24T02:07:48.167Z,11.10
2018-12-24T02:10:16.692Z,11.10
2018-12-24T02:12:45.215Z,11.00
2018-12-24T02:15:13.717Z,11.00
2018-12-24T02:17:42.249Z,11.00
2018-12-24T02:20:11.122Z,11.00
2018-12-24T02:22:39.638Z,11.00
2018-12-24T02:25:08.148Z,11.00
2018-12-24T02:27:36.995Z,11.00
2018-12-24T02:30:05.775Z,11.00
2018-12-24T02:32:34.689Z,11.00
2018-12-24T02:35:03.219Z,11.00
2018-12-24T02:37:31.741Z,11.00
2018-12-24T02:40:00.248Z,11.00
2018-12-24T02:42:28.799Z,11.00
2018-12-24T02:44:57.332Z,11.00
2018-12-24T02:47:25.884Z,10.90
2018-12-24T02:49:54.373Z,10.90
2018-12-24T02:52:22.908Z,10.90
2018-12-24T02:54:51.418Z,10.90
2018-12-24T02:57:19.986Z,10.90
2018-12-24T02:59:48.530Z,10.90
2018-12-24T03:02:17.083Z,10.90
2018-12-24T03:04:45.591Z,10.90
2018-12-24T03:07:14.441Z,10.90
2018-12-24T03:09:42.960Z,10.90
2018-12-24T03:12:11.486Z,10.90
2018-12-24T03:14:40.022Z,10.90
2018-12-24T03:17:08.881Z,10.90
2018-12-24T03:19:37.391Z,10.90
2018-12-24T03:22:05.942Z,10.90
2018-12-24T03:24:34.442Z,10.50
2018-12-24T03:27:03.017Z,9.60
2018-12-24T03:29:31.518Z,9.00
2018-12-24T03:32:00.087Z,8.70
2018-12-24T03:34:28.637Z,8.50
2018-12-24T03:36:57.146Z,8.40
2018-12-24T03:39:25.713Z,8.40
2018-12-24T03:41:54.213Z,8.40
2018-12-24T03:44:22.758Z,8.40
2018-12-24T03:46:51.293Z,8.40
2018-12-24T03:49:20.065Z,8.40
2018-12-24T03:51:48.960Z,8.40
2018-12-24T03:54:17.505Z,8.40
2018-12-24T03:56:46.013Z,8.30
2018-12-24T03:59:14.543Z,8.20
2018-12-24T04:01:43.101Z,8.20
2018-12-24T04:04:11.625Z,8.20
2018-12-24T04:06:40.113Z,8.20
2018-12-24T04:09:08.635Z,8.10
2018-12-24T04:11:37.130Z,8.00
2018-12-24T04:14:05.668Z,8.00
2018-12-24T04:16:34.249Z,8.10
2018-12-24T04:19:02.777Z,8.00
2018-12-24T04:21:31.281Z,8.00
2018-12-24T04:23:59.799Z,8.00
2018-12-24T04:26:28.323Z,7.90
2018-12-24T04:28:56.907Z,8.00
2018-12-24T04:31:25.703Z,7.90
2018-12-24T04:33:54.224Z,7.90
2018-12-24T04:36:22.731Z,7.80
2018-12-24T04:38:51.259Z,7.70
2018-12-24T04:41:19.763Z,7.60
2018-12-24T04:43:48.311Z,7.50
2018-12-24T04:46:16.885Z,7.30
2018-12-24T04:48:45.434Z,7.20
2018-12-24T04:51:13.922Z,7.10
2018-12-24T04:53:42.787Z,6.90
2018-12-24T04:56:11.285Z,6.90
2018-12-24T04:58:39.805Z,7.00
2018-12-24T05:01:08.312Z,6.90
2018-12-24T05:03:36.821Z,6.70
2018-12-24T05:06:05.344Z,6.60
2018-12-24T05:08:33.881Z,6.50
2018-12-24T05:11:02.383Z,6.50
2018-12-24T05:13:31.339Z,6.50
2018-12-24T05:15:59.853Z,6.40
2018-12-24T05:18:28.360Z,6.40
2018-12-24T05:20:57.203Z,6.40
2018-12-24T05:23:25.997Z,6.40
2018-12-24T05:25:54.521Z,6.40
2018-12-24T05:28:23.023Z,6.30
2018-12-24T05:30:51.567Z,6.40
2018-12-24T05:33:20.443Z,6.40
2018-12-24T05:35:48.983Z,6.40
2018-12-24T05:38:17.491Z,6.40
2018-12-24T05:40:46.026Z,6.40
2018-12-24T05:43:14.555Z,6.30
2018-12-24T05:45:43.137Z,6.40
2018-12-24T05:48:11.645Z,6.40
2018-12-24T05:50:40.201Z,6.40
2018-12-24T05:53:08.761Z,6.30
2018-12-24T05:55:37.278Z,6.30
2018-12-24T05:58:05.797Z,6.20
2018-12-24T06:00:34.311Z,6.10
2018-12-24T06:03:02.820Z,6.00
2018-12-24T06:05:31.378Z,6.00
2018-12-24T06:08:00.204Z,5.90
2018-12-24T06:10:28.721Z,5.90
2018-12-24T06:12:57.220Z,5.80
2018-12-24T06:15:25.792Z,5.80
2018-12-24T06:17:54.300Z,5.70
2018-12-24T06:20:22.833Z,5.60
2018-12-24T06:22:51.335Z,5.50
2018-12-24T06:25:19.882Z,5.40
2018-12-24T06:27:48.383Z,5.40
2018-12-24T06:30:16.961Z,5.40
2018-12-24T06:32:45.510Z,5.40
2018-12-24T06:35:14.041Z,5.40
2018-12-24T06:37:42.546Z,5.50
2018-12-24T06:40:11.051Z,5.40
2018-12-24T06:42:39.554Z,5.40
2018-12-24T06:45:08.053Z,5.40
2018-12-24T06:47:36.553Z,5.50
2018-12-24T06:50:05.734Z,5.50
2018-12-24T06:52:34.337Z,5.50
2018-12-24T06:55:02.877Z,5.50
2018-12-24T06:57:31.389Z,5.50
2018-12-24T06:59:59.922Z,5.50
2018-12-24T07:02:28.459Z,5.50
2018-12-24T07:04:56.974Z,5.60
2018-12-24T07:07:25.517Z,5.50
2018-12-24T07:09:54.051Z,5.50
2018-12-24T07:12:22.745Z,5.50
2018-12-24T07:14:51.262Z,5.50
2018-12-24T07:17:19.764Z,5.50
2018-12-24T07:19:48.546Z,5.40
2018-12-24T07:22:17.509Z,5.50
2018-12-24T07:24:46.064Z,5.50
2018-12-24T07:27:14.561Z,5.40
2018-12-24T07:29:43.090Z,5.40
2018-12-24T07:32:11.642Z,5.40
2018-12-24T07:34:40.135Z,5.40
2018-12-24T07:37:08.696Z,5.40
2018-12-24T07:39:37.198Z,5.30
2018-12-24T07:42:05.810Z,5.30
2018-12-24T07:44:34.411Z,5.30
2018-12-24T07:47:02.934Z,5.40
2018-12-24T07:49:31.487Z,5.30
2018-12-24T07:51:59.980Z,5.40
2018-12-24T07:54:28.481Z,5.40
2018-12-24T07:56:56.985Z,5.40
2018-12-24T07:59:25.498Z,5.50
2018-12-24T08:01:54.060Z,5.60
2018-12-24T08:04:22.619Z,5.60
2018-12-24T08:06:51.116Z,5.70
2018-12-24T08:09:19.617Z,5.70
2018-12-24T08:11:48.125Z,5.70
2018-12-24T08:14:17.014Z,5.80
2018-12-24T08:16:45.526Z,5.80
2018-12-24T08:19:14.037Z,5.80
2018-12-24T08:21:43.073Z,5.80
2018-12-24T08:24:11.615Z,5.90
2018-12-24T08:26:40.150Z,5.90
2018-12-24T08:29:08.664Z,5.90
2018-12-24T08:31:37.201Z,5.90
2018-12-24T08:34:05.719Z,5.80
2018-12-24T08:36:34.274Z,5.90
2018-12-24T08:39:03.949Z,5.90
2018-12-24T08:41:32.455Z,5.90
2018-12-24T08:44:01.283Z,5.90
2018-12-24T08:46:29.769Z,6.00
2018-12-24T08:48:58.413Z,5.90
2018-12-24T08:51:27.014Z,5.90
2018-12-24T08:53:55.523Z,5.90
2018-12-24T08:56:24.150Z,5.90
2018-12-24T08:58:52.653Z,5.90
2018-12-24T09:01:21.191Z,5.90
2018-12-24T09:03:50.148Z,5.90
2018-12-24T09:06:18.722Z,6.00
2018-12-24T09:08:47.246Z,6.00
2018-12-24T09:11:15.769Z,6.00
2018-12-24T09:13:44.277Z,6.00
2018-12-24T09:16:12.845Z,6.00
2018-12-24T09:18:41.657Z,6.10
2018-12-24T09:21:10.145Z,6.10
2018-12-24T09:23:39.052Z,6.10
2018-12-24T09:26:07.634Z,6.10
2018-12-24T09:28:36.169Z,6.10
2018-12-24T09:31:05.073Z,6.10
2018-12-24T09:33:33.868Z,6.10
2018-12-24T09:36:02.381Z,6.10
2018-12-24T09:38:31.066Z,6.10
2018-12-24T09:40:59.641Z,6.00
2018-12-24T09:43:28.182Z,6.00
2018-12-24T09:45:56.685Z,6.10
2018-12-24T09:48:25.185Z,6.00
2018-12-24T09:50:54.057Z,6.00
2018-12-24T09:53:22.561Z,6.10
2018-12-24T09:55:51.076Z,6.10
2018-12-24T09:58:19.579Z,6.20
2018-12-24T10:00:48.127Z,6.20
2018-12-24T10:03:16.651Z,6.30
2018-12-24T10:05:45.174Z,6.30
2018-12-24T10:08:14.319Z,6.30
2018-12-24T10:10:42.833Z,6.30
2018-12-24T10:13:11.337Z,6.40
2018-12-24T10:15:39.833Z,6.40
2018-12-24T10:18:08.723Z,6.50
2018-12-24T10:20:37.239Z,6.50
2018-12-24T10:23:05.754Z,6.60
2018-12-24T10:25:34.298Z,6.60
2018-12-24T10:28:02.812Z,6.60
2018-12-24T10:30:31.322Z,6.70
2018-12-24T10:32:59.837Z,6.70
2018-12-24T10:35:28.341Z,6.80
2018-12-24T10:37:56.913Z,6.90
2018-12-24T10:40:25.444Z,6.90
2018-12-24T10:42:53.980Z,7.00
2018-12-24T10:45:22.560Z,6.90
2018-12-24T10:47:51.422Z,6.90
2018-12-24T10:50:19.922Z,7.00
2018-12-24T10:52:48.467Z,7.00
2018-12-24T10:55:17.005Z,7.00
2018-12-24T10:57:45.577Z,7.10
2018-12-24T11:00:14.083Z,7.10
2018-12-24T11:02:42.604Z,7.10
2018-12-24T11:05:11.107Z,7.10
2018-12-24T11:07:39.632Z,7.10
2018-12-24T11:10:09.979Z,7.10
2018-12-24T11:12:38.519Z,7.10
2018-12-24T11:15:08.968Z,6.90
2018-12-24T11:17:37.477Z,6.80
2018-12-24T11:20:07.376Z,6.80
2018-12-24T11:22:35.893Z,6.80
2018-12-24T11:25:04.471Z,6.80
2018-12-24T11:27:33.087Z,6.70
2018-12-24T11:30:01.605Z,6.70
2018-12-24T11:32:30.233Z,6.80
2018-12-24T11:34:58.733Z,6.80
2018-12-24T11:37:27.542Z,6.90
2018-12-24T11:39:56.042Z,7.00
2018-12-24T11:42:26.025Z,6.90
2018-12-24T11:44:54.739Z,7.00
2018-12-24T11:47:23.302Z,7.00
2018-12-24T11:49:51.800Z,7.10
2018-12-24T11:52:20.357Z,7.10
2018-12-24T11:54:48.878Z,7.10
2018-12-24T11:57:17.373Z,7.10
2018-12-24T11:59:45.894Z,7.10
2018-12-24T12:02:17.489Z,7.00
2018-12-24T12:04:46.013Z,7.10
2018-12-24T12:07:14.516Z,7.20
2018-12-24T12:09:43.030Z,7.20
2018-12-24T12:12:11.524Z,7.20
2018-12-24T12:14:40.052Z,7.20
2018-12-24T12:17:09.286Z,7.20
2018-12-24T12:19:39.938Z,7.20
2018-12-24T12:22:08.486Z,7.20
2018-12-24T12:24:37.007Z,7.10
2018-12-24T12:27:05.504Z,7.10
2018-12-24T12:29:34.166Z,7.10
2018-12-24T12:32:02.662Z,7.10
2018-12-24T12:34:31.177Z,7.20
2018-12-24T12:36:59.684Z,7.20
2018-12-24T12:39:28.222Z,7.30
2018-12-24T12:41:56.720Z,7.40
2018-12-24T12:44:25.230Z,7.40
2018-12-24T12:46:53.782Z,7.40
2018-12-24T12:49:22.284Z,7.40
2018-12-24T12:51:50.814Z,7.40
2018-12-24T12:54:19.695Z,7.40
2018-12-24T12:56:48.402Z,7.50
2018-12-24T12:59:16.924Z,7.50
2018-12-24T13:01:45.439Z,7.50
2018-12-24T13:04:14.218Z,7.40
2018-12-24T13:06:42.745Z,7.20
2018-12-24T13:09:11.265Z,6.80
2018-12-24T13:11:39.781Z,6.50
2018-12-24T13:14:08.294Z,6.40
2018-12-24T13:16:36.813Z,6.40
2018-12-24T13:19:05.323Z,6.40
2018-12-24T13:21:33.829Z,6.40
2018-12-24T13:24:02.358Z,6.40
2018-12-24T13:26:31.174Z,6.30
2018-12-24T13:28:59.697Z,6.40
2018-12-24T13:31:28.192Z,6.40
2018-12-24T13:33:56.738Z,6.30
2018-12-24T13:36:25.518Z,6.20
2018-12-24T13:38:54.441Z,6.20
2018-12-24T13:41:23.405Z,6.20
2018-12-24T13:43:52.198Z,6.20
2018-12-24T13:46:20.738Z,6.20
2018-12-24T13:48:49.561Z,6.20
2018-12-24T13:52:01.365Z,6.10
2018-12-24T13:54:29.769Z,6.20
2018-12-24T13:56:58.160Z,6.10
2018-12-24T13:59:26.573Z,6.10
2018-12-24T14:01:55.014Z,6.10
2018-12-24T14:04:23.501Z,6.10
2018-12-24T14:06:51.889Z,6.10
2018-12-24T14:09:20.338Z,6.10
2018-12-24T14:11:48.827Z,6.00
2018-12-24T14:14:17.256Z,6.10
2018-12-24T14:16:45.690Z,6.10
2018-12-24T14:19:14.368Z,6.00
2018-12-24T14:21:42.764Z,6.00
2018-12-24T14:24:11.177Z,6.00
2018-12-24T14:26:39.585Z,6.00
2018-12-24T14:29:08.009Z,6.10
2018-12-24T14:31:36.411Z,6.10
2018-12-24T14:34:04.802Z,6.00
2018-12-24T14:36:34.146Z,6.00
2018-12-24T14:39:02.583Z,5.90
2018-12-24T14:41:31.057Z,6.00
2018-12-24T14:43:59.453Z,6.00
2018-12-24T14:46:27.865Z,5.90
2018-12-24T14:48:56.266Z,6.00
2018-12-24T14:51:24.737Z,5.90
2018-12-24T14:53:53.206Z,6.00
2018-12-24T14:56:21.620Z,6.10
2018-12-24T14:58:50.278Z,6.20
2018-12-24T15:01:18.708Z,6.30
2018-12-24T15:03:47.449Z,6.20
2018-12-24T15:06:15.881Z,6.20
2018-12-24T15:08:44.622Z,6.20
2018-12-24T15:11:13.333Z,6.20
2018-12-24T15:13:41.720Z,6.30
2018-12-24T15:16:10.125Z,6.30
2018-12-24T15:18:38.522Z,6.30
2018-12-24T15:21:06.929Z,6.20
2018-12-24T15:23:35.327Z,6.20
2018-12-24T15:26:03.733Z,6.10
2018-12-24T15:28:32.141Z,6.10
2018-12-24T15:31:00.861Z,6.10
2018-12-24T15:33:29.256Z,6.00
2018-12-24T15:35:57.661Z,6.00
2018-12-24T15:38:26.092Z,6.00
2018-12-24T15:40:54.489Z,6.00
2018-12-24T15:43:22.919Z,5.90
2018-12-24T15:45:51.674Z,5.90
2018-12-24T15:48:20.089Z,5.90
2018-12-24T15:50:48.485Z,5.90
2018-12-24T15:53:16.873Z,5.90
2018-12-24T15:55:45.324Z,5.80
2018-12-24T15:58:13.771Z,5.90
2018-12-24T16:00:42.236Z,5.90
2018-12-24T16:03:10.637Z,5.90
2018-12-24T16:05:39.391Z,5.90
2018-12-24T16:08:07.775Z,5.80
2018-12-24T16:10:36.208Z,5.80
2018-12-24T16:13:04.636Z,5.70
2018-12-24T16:15:33.024Z,5.70
2018-12-24T16:18:01.425Z,5.70
2018-12-24T16:20:30.097Z,5.70
2018-12-24T16:22:58.514Z,5.70
2018-12-24T16:25:26.941Z,5.70
2018-12-24T16:27:55.778Z,5.70
2018-12-24T16:30:24.220Z,5.70
2018-12-24T16:32:52.647Z,5.60
2018-12-24T16:35:21.043Z,5.70
2018-12-24T16:37:49.470Z,5.70
2018-12-24T16:40:17.961Z,5.70
2018-12-24T16:42:46.411Z,5.70
2018-12-24T16:45:14.812Z,5.70
2018-12-24T16:47:43.225Z,5.70
2018-12-24T16:50:11.629Z,5.70
2018-12-24T16:52:40.074Z,5.60
2018-12-24T16:55:08.492Z,5.50
2018-12-24T16:57:36.890Z,5.50
2018-12-24T17:00:06.744Z,5.50
2018-12-24T17:02:35.637Z,5.50
2018-12-24T17:05:04.446Z,5.50
2018-12-24T17:07:32.884Z,5.50
2018-12-24T17:10:01.340Z,5.50
2018-12-24T17:12:30.081Z,5.60
2018-12-24T17:14:58.762Z,5.60
2018-12-24T17:17:27.252Z,5.70
2018-12-24T17:19:55.676Z,5.70
2018-12-24T17:22:24.073Z,5.70
2018-12-24T17:24:52.468Z,5.70
2018-12-24T17:27:20.896Z,5.70
2018-12-24T17:29:49.551Z,5.60
2018-12-24T17:32:17.937Z,5.60
2018-12-24T17:34:46.348Z,5.60
2018-12-24T17:37:14.745Z,5.60
2018-12-24T17:39:43.182Z,5.70
2018-12-24T17:42:11.587Z,5.80
2018-12-24T17:44:39.985Z,5.80
2018-12-24T17:47:16.067Z,5.70
2018-12-24T17:49:38.533Z,5.70
2018-12-24T17:52:06.929Z,5.80
2018-12-24T17:54:35.347Z,5.80
2018-12-24T17:57:03.752Z,5.80
2018-12-24T17:59:32.248Z,5.80
2018-12-24T18:02:00.721Z,5.90
2018-12-24T18:04:29.161Z,5.90
2018-12-24T18:06:57.561Z,5.80
2018-12-24T18:09:25.990Z,5.70
2018-12-24T18:11:54.452Z,5.70
2018-12-24T18:14:22.861Z,5.60
2018-12-24T18:16:51.337Z,5.60
2018-12-24T18:19:19.752Z,5.60
2018-12-24T18:21:48.144Z,5.60
2018-12-24T18:24:16.971Z,5.60
2018-12-24T18:26:45.392Z,5.50
2018-12-24T18:29:13.807Z,5.50
2018-12-24T18:31:42.292Z,5.40
2018-12-24T18:34:10.843Z,5.40
2018-12-24T18:36:39.293Z,5.30
2018-12-24T18:39:07.709Z,5.20
2018-12-24T18:41:36.186Z,5.20
2018-12-24T18:44:04.633Z,5.10
2018-12-24T18:46:33.678Z,5.10
2018-12-24T18:49:02.144Z,5.00
2018-12-24T18:51:30.569Z,5.00
2018-12-24T18:53:58.972Z,5.00
2018-12-24T18:56:27.374Z,4.90
2018-12-24T18:58:55.783Z,4.90
2018-12-24T19:01:24.341Z,4.90
2018-12-24T19:03:52.832Z,4.90
2018-12-24T19:06:21.267Z,4.90
2018-12-24T19:08:49.799Z,5.00
2018-12-24T19:11:18.276Z,5.00
2018-12-24T19:13:46.680Z,5.00
2018-12-24T19:16:15.089Z,5.00
2018-12-24T19:18:43.506Z,5.00
2018-12-24T19:21:11.945Z,5.10
2018-12-24T19:23:40.370Z,5.00
2018-12-24T19:26:08.775Z,5.00
2018-12-24T19:28:37.177Z,5.00
2018-12-24T19:31:05.595Z,5.10
2018-12-24T19:33:34.005Z,5.10
2018-12-24T19:36:02.453Z,5.10
2018-12-24T19:38:30.843Z,5.00
2018-12-24T19:41:07.739Z,5.00
2018-12-24T19:43:36.588Z,5.00
2018-12-24T19:46:05.069Z,5.00
2018-12-24T19:48:33.485Z,5.00
2018-12-24T19:51:02.373Z,5.10
2018-12-24T19:53:30.769Z,5.10
2018-12-24T19:55:59.454Z,5.10
2018-12-24T19:58:27.888Z,5.10
2018-12-24T20:00:56.294Z,5.10
2018-12-24T20:03:24.741Z,5.10
2018-12-24T20:05:53.143Z,5.10
2018-12-24T20:08:41.333Z,5.00
2018-12-24T20:11:09.742Z,5.00
2018-12-24T20:13:38.141Z,5.10
2018-12-24T20:16:06.653Z,5.10
2018-12-24T20:18:35.041Z,5.10
2018-12-24T20:21:03.461Z,5.10
2018-12-24T20:23:31.884Z,5.10
2018-12-24T20:26:00.286Z,5.10
2018-12-24T20:28:28.673Z,5.10
2018-12-24T20:30:57.068Z,5.00
2018-12-24T20:33:25.472Z,5.00
2018-12-24T20:35:53.897Z,4.90
2018-12-24T20:38:22.620Z,5.00
2018-12-24T20:40:50.991Z,4.90
2018-12-24T20:43:19.400Z,4.90
2018-12-24T20:45:47.793Z,4.80
2018-12-24T20:48:16.226Z,4.80
2018-12-24T20:50:44.617Z,4.70
2018-12-24T20:53:13.021Z,4.70
2018-12-24T20:55:41.458Z,4.70
2018-12-24T20:58:09.875Z,4.70
2018-12-24T21:00:38.270Z,4.70
2018-12-24T21:03:06.694Z,4.70
2018-12-24T21:05:35.109Z,4.60
2018-12-24T21:08:03.553Z,4.60
2018-12-24T21:10:32.364Z,4.60
2018-12-24T21:13:00.793Z,4.50
2018-12-24T21:15:29.277Z,4.60
2018-12-24T21:17:57.698Z,4.60
2018-12-24T21:20:26.187Z,4.50
2018-12-24T21:22:54.579Z,4.60
2018-12-24T21:25:22.973Z,4.60
2018-12-24T21:27:51.404Z,4.60
2018-12-24T21:30:19.842Z,4.50
2018-12-24T21:32:48.367Z,4.50
2018-12-24T21:35:16.757Z,4.50
2018-12-24T21:37:45.173Z,4.50
2018-12-24T21:40:13.946Z,4.50
2018-12-24T21:42:42.361Z,4.50
2018-12-24T21:45:10.775Z,4.50
2018-12-24T21:47:39.199Z,4.50
2018-12-24T21:50:07.896Z,4.60
2018-12-24T21:52:36.296Z,4.60
2018-12-24T21:55:05.044Z,4.60
2018-12-24T21:57:33.537Z,4.70
2018-12-24T22:00:01.967Z,4.70
2018-12-24T22:02:30.398Z,4.70
2018-12-24T22:04:58.818Z,4.70
2018-12-24T22:07:27.234Z,4.70
2018-12-24T22:09:55.665Z,4.80
2018-12-24T22:12:24.113Z,4.70
2018-12-24T22:14:52.595Z,4.70
2018-12-24T22:17:21.106Z,4.70
2018-12-24T22:19:49.764Z,4.70
2018-12-24T22:22:18.217Z,4.70
2018-12-24T22:24:46.954Z,4.70
2018-12-24T22:27:15.370Z,4.70
2018-12-24T22:29:43.814Z,4.70
2018-12-24T22:32:12.270Z,4.60
2018-12-24T22:34:40.836Z,4.60
2018-12-24T22:37:09.305Z,4.50
2018-12-24T22:39:37.725Z,4.50
2018-12-24T22:42:06.118Z,4.50
2018-12-24T22:44:34.544Z,4.50
2018-12-24T22:47:02.952Z,4.50
2018-12-24T22:49:31.383Z,4.50
2018-12-24T22:51:59.768Z,4.50
2018-12-24T22:54:47.562Z,4.50
2018-12-24T22:57:15.998Z,4.50
2018-12-24T22:59:44.444Z,4.50
2018-12-24T23:02:12.875Z,4.60
2018-12-24T23:04:41.305Z,4.60
2018-12-24T23:07:09.784Z,4.60
2018-12-24T23:09:38.217Z,4.70
2018-12-24T23:12:06.618Z,4.80
2018-12-24T23:14:35.080Z,4.90
2018-12-24T23:17:03.542Z,4.80
2018-12-24T23:19:32.412Z,4.90
2018-12-24T23:22:00.801Z,4.90
2018-12-24T23:24:29.237Z,4.90
2018-12-24T23:26:57.638Z,4.90
2018-12-24T23:29:26.086Z,5.00
2018-12-24T23:31:54.474Z,4.80
2018-12-24T23:34:23.190Z,4.80
2018-12-24T23:36:51.645Z,4.70
2018-12-24T23:39:20.113Z,4.80
2018-12-24T23:41:48.549Z,4.80
2018-12-24T23:44:16.984Z,4.80
2018-12-24T23:46:45.422Z,4.80
2018-12-24T23:49:13.850Z,4.80
2018-12-24T23:51:42.244Z,4.80
2018-12-24T23:54:10.665Z,4.80
2018-12-24T23:56:39.057Z,4.70
2018-12-24T23:59:07.535Z,4.60
